^^

Nearby METAR Reports

METAR (Meteorological Aerodrome Report) are Airport generated local weather condition reports for use, predominantly by pilots, these reports are also used as part of compliment of data sets required for Chatteris Weathers prediction software - WxSim.

EGUN - Mildenhall Raf, United Kingdom
Distance from station: ESE 19mi, 31km
Updated: 16/11/2018 10:56
Mist, Overcast
Mist, Overcast
 Wind from E
Wind: E 8 mph , 13 km/h
Temperature: 10°C
Wind Chill: 8°C
Dew Point: 10°C
Humidity: 100%
Barometer: 1025.7 hPa
Summary: Mist
Clouds: Overcast
Visibility: 6 miles , 9 km
Cloud details: Overcast 91 m
2018/11/16 10:56 EGUN 161056Z AUTO 10007KT 9000 BR OVC003 10/10 A3029 RMK AO2 SLP261 T00990099
EGSC - Cambridge, United Kingdom
Distance from station: SSE 20mi, 32km
Updated: 16/11/2018 11:20
Mostly cloudy
Mostly cloudy
 Wind from SE
Wind: SE 5 mph , 7 km/h
Temperature: 10°C
Wind Chill: 9°C
Dew Point: 9°C
Humidity: 94%
Barometer: 1026 hPa
Clouds: Mostly cloudy
Visibility: 4 miles , 6 km
Cloud details: Mostly cloudy 91 m
2018/11/16 11:20 EGSC 161120Z 13004KT 070V170 6000 BKN003 10/09 Q1026
 
EGUL - Lakenheath Raf, United Kingdom
Distance from station: E 22mi, 36km
Updated: 16/11/2018 10:56
Mist, Overcast
Mist, Overcast
 Wind from ESE
Wind: ESE 7 mph , 11 km/h
Temperature: 10°C
Wind Chill: 8°C
Dew Point: 9°C
Humidity: 94%
Barometer: 1026.1 hPa
Summary: Mist
Clouds: Overcast
Visibility: 1 mile , 2 km
Cloud details: Overcast 91 m
2018/11/16 10:56 EGUL 161056Z 12006KT 2000 BR OVC003 10/09 A3030 RMK AO2A SLP264 T00980090 $
EGXT - Wittering Raf, United Kingdom
Distance from station: WNW 24mi, 38km
Updated: 16/11/2018 10:50
Mist, Overcast
Mist, Overcast
 Wind from SE
Wind: SE 6 mph , 9 km/h
Temperature: 10°C
Wind Chill: 9°C
Dew Point: 10°C
Humidity: 100%
Barometer: 1025 hPa
Summary: Mist
Clouds: Overcast
Visibility: 2 miles , 4 km
Cloud details: Partly cloudy 30 m
Overcast 61 m
2018/11/16 10:50 EGXT 161050Z 13005KT 3500 BR SCT001 OVC002 10/10 Q1025 RED
 
EGYH - Holbeach (aut), United Kingdom
Distance from station: N 27mi, 44km
Updated: 16/11/2018 10:50
Mist, Overcast
Mist, Overcast
 Wind from SSE
Wind: SSE 10 mph , 17 km/h
Temperature: 10°C
Wind Chill: 8°C
Dew Point: 10°C
Humidity: 100%
Barometer: 1026 hPa
Summary: Mist
Clouds: Overcast
Visibility: 2 miles , 4 km
Cloud details: Overcast 91 m
2018/11/16 10:50 EGYH 161050Z 15009KT 3500 BR OVC003 10/10 Q1026 YLO2
EGSS - Stansted Airport, United Kingdom
Distance from station: SE 11mi, 18km
Updated: 16/11/2018 11:20
Mist, Overcast
Mist, Overcast
 Wind from ESE
Wind: ESE 7 mph , 11 km/h
Temperature: 9°C
Wind Chill: 7°C
Dew Point: 9°C
Humidity: 100%
Barometer: 1026 hPa
Summary: Mist
Clouds: Overcast
Visibility: 1 mile , 2 km
Cloud details: Overcast 61 m
2018/11/16 11:20 EGSS 161120Z AUTO 11006KT 060V160 2400 BR OVC002 09/09 Q1026
 
EGGW - Luton Airport, United Kingdom
Distance from station: WSW 19mi, 31km
Updated: 16/11/2018 11:20
Mist, Overcast
Mist, Overcast
 Wind from SE
Wind: SE 7 mph , 11 km/h
Temperature: 10°C
Wind Chill: 8°C
Dew Point: 10°C
Humidity: 100%
Barometer: 1025 hPa
Summary: Mist
Clouds: Overcast
Visibility: 1 mile , 2 km
Cloud details: Overcast 30 m
2018/11/16 11:20 EGGW 161120Z AUTO 13006KT 1500 BR OVC001 10/10 Q1025
EGLL - London/Heathrow, United Kingdom
Distance from station: SSW 41mi, 66km
Updated: 16/11/2018 11:20
Mostly cloudy
Mostly cloudy
 Wind from ESE
Wind: ESE 7 mph , 11 km/h
Temperature: 11°C
Dew Point: 10°C
Humidity: 94%
Barometer: 1026 hPa
Clouds: Mostly cloudy
Visibility: 4 miles , 6 km
Cloud details: Mostly cloudy 183 m
2018/11/16 11:20 EGLL 161120Z 11006KT 6000 BKN006 11/10 Q1026 NOSIG
 
EGKK - London/Gatwick A, United Kingdom
Distance from station: S 60mi, 97km
Updated: 16/11/2018 11:20
Mist, Overcast
Mist, Overcast
 Wind from ENE
Wind: ENE 6 mph , 9 km/h
Temperature: 10°C
Wind Chill: 9°C
Dew Point: 10°C
Humidity: 100%
Barometer: 1025 hPa
Summary: Mist
Clouds: Overcast
Visibility: 2 miles , 4 km
Cloud details: Overcast 91 m
2018/11/16 11:20 EGKK 161120Z 06005KT 3900 BR OVC003 10/10 Q1025
EGUY - Wyton Raf, United Kingdom
Distance from station: SW 11mi, 18km
Updated: 04/10/2015 09:50
NOT Current
Haze, Clear
Haze, Clear
 Wind from SSE
Wind: SSE 2 mph , 4 km/h
Temperature: 11°C
Dew Point: 7°C
Humidity: 77%
Barometer: 1014 hPa
Summary: Haze
Clouds: Clear
Visibility: 4 miles , 6 km
2015/10/04 08:50 EGUY 040850Z 15002KT 6000 HZ SKC 11/07 Q1014 WHT

Met Office METAR data link, decoding METAR data code.